sensor_id;sensor_type;location;lat;lon;timestamp;P1;durP1;ratioP1;P2;durP2;ratioP2
79147;SDS011;68562;51.600;6.524;2023-05-10T00:00:00;11.6;;;6.8;;
79147;SDS011;68562;51.600;6.524;2023-05-10T00:05:00;10.8;;;7.3;;
79147;SDS011;68562;51.600;6.524;2023-05-10T00:10:00;11.1;;;7.3;;
79147;SDS011;68562;51.600;6.524;2023-05-10T00:15:00;11.3;;;7.7;;
79147;SDS011;68562;51.600;6.524;2023-05-10T00:20:00;13.3;;;8.0;;
79147;SDS011;68562;51.600;6.524;2023-05-10T00:25:00;13.9;;;8.2;;
79147;SDS011;68562;51.600;6.524;2023-05-10T00:30:00;14.4;;;8.5;;
79147;SDS011;68562;51.600;6.524;2023-05-10T00:35:00;13.6;;;9.0;;
79147;SDS011;68562;51.600;6.524;2023-05-10T00:40:00;13.3;;;9.0;;
79147;SDS011;68562;51.600;6.524;2023-05-10T00:45:00;13.2;;;7.9;;
79147;SDS011;68562;51.600;6.524;2023-05-10T00:50:00;11.9;;;8.7;;
79147;SDS011;68562;51.600;6.524;2023-05-10T00:55:00;12.6;;;7.8;;
79147;SDS011;68562;51.600;6.524;2023-05-10T01:00:00;11.8;;;7.0;;
79147;SDS011;68562;51.600;6.524;2023-05-10T01:05:00;12.1;;;7.8;;
79147;SDS011;68562;51.600;6.524;2023-05-10T01:10:00;12.3;;;7.9;;
79147;SDS011;68562;51.600;6.524;2023-05-10T01:15:00;13.7;;;8.6;;
79147;SDS011;68562;51.600;6.524;2023-05-10T01:20:00;14.1;;;8.4;;
79147;SDS011;68562;51.600;6.524;2023-05-10T01:25:05;14.8;;;9.8;;
79147;SDS011;68562;51.600;6.524;2023-05-10T01:30:08;15.7;;;8.9;;
79147;SDS011;68562;51.600;6.524;2023-05-10T01:35:00;15.0;;;9.3;;
79147;SDS011;68562;51.600;6.524;2023-05-10T01:40:02;14.9;;;9.7;;
79147;SDS011;68562;51.600;6.524;2023-05-10T01:45:02;16.0;;;10.3;;
79147;SDS011;68562;51.600;6.524;2023-05-10T01:50:02;17.2;;;10.9;;
79147;SDS011;68562;51.600;6.524;2023-05-10T01:55:01;16.8;;;9.5;;
79147;SDS011;68562;51.600;6.524;2023-05-10T02:00:01;17.2;;;10.9;;
79147;SDS011;68562;51.600;6.524;2023-05-10T02:05:00;19.5;;;10.7;;
79147;SDS011;68562;51.600;6.524;2023-05-10T02:10:00;15.9;;;10.0;;
79147;SDS011;68562;51.600;6.524;2023-05-10T02:15:00;17.1;;;9.5;;
79147;SDS011;68562;51.600;6.524;2023-05-10T02:20:00;16.4;;;10.4;;
79147;SDS011;68562;51.600;6.524;2023-05-10T02:25:00;16.8;;;10.0;;
79147;SDS011;68562;51.600;6.524;2023-05-10T02:30:00;14.8;;;9.8;;
79147;SDS011;68562;51.600;6.524;2023-05-10T02:35:00;16.4;;;10.5;;
79147;SDS011;68562;51.600;6.524;2023-05-10T02:40:00;14.3;;;10.0;;
79147;SDS011;68562;51.600;6.524;2023-05-10T02:45:01;16.7;;;10.2;;
79147;SDS011;68562;51.600;6.524;2023-05-10T02:50:00;17.3;;;11.3;;
79147;SDS011;68562;51.600;6.524;2023-05-10T02:55:00;18.2;;;11.2;;
79147;SDS011;68562;51.600;6.524;2023-05-10T03:00:00;18.0;;;11.2;;
79147;SDS011;68562;51.600;6.524;2023-05-10T03:05:00;21.1;;;12.8;;
79147;SDS011;68562;51.600;6.524;2023-05-10T03:10:00;18.3;;;11.4;;
79147;SDS011;68562;51.600;6.524;2023-05-10T03:15:00;21.7;;;11.8;;
79147;SDS011;68562;51.600;6.524;2023-05-10T03:20:03;19.9;;;12.0;;
79147;SDS011;68562;51.600;6.524;2023-05-10T03:25:00;20.4;;;12.0;;
79147;SDS011;68562;51.600;6.524;2023-05-10T03:30:00;22.3;;;12.4;;
79147;SDS011;68562;51.600;6.524;2023-05-10T03:35:00;18.6;;;11.3;;
79147;SDS011;68562;51.600;6.524;2023-05-10T03:40:00;23.8;;;12.0;;
79147;SDS011;68562;51.600;6.524;2023-05-10T03:45:00;23.5;;;12.8;;
79147;SDS011;68562;51.600;6.524;2023-05-10T03:50:00;27.1;;;13.6;;
79147;SDS011;68562;51.600;6.524;2023-05-10T03:55:00;22.8;;;13.1;;
79147;SDS011;68562;51.600;6.524;2023-05-10T04:00:00;24.3;;;13.8;;
79147;SDS011;68562;51.600;6.524;2023-05-10T04:05:00;26.2;;;15.8;;
79147;SDS011;68562;51.600;6.524;2023-05-10T04:10:00;29.9;;;17.7;;
79147;SDS011;68562;51.600;6.524;2023-05-10T04:15:00;32.3;;;17.3;;
79147;SDS011;68562;51.600;6.524;2023-05-10T04:20:00;33.0;;;17.5;;
79147;SDS011;68562;51.600;6.524;2023-05-10T04:25:00;30.6;;;16.8;;
79147;SDS011;68562;51.600;6.524;2023-05-10T04:30:00;31.7;;;17.5;;
79147;SDS011;68562;51.600;6.524;2023-05-10T04:35:00;31.2;;;16.6;;
79147;SDS011;68562;51.600;6.524;2023-05-10T04:40:00;33.9;;;17.8;;
79147;SDS011;68562;51.600;6.524;2023-05-10T04:45:00;32.8;;;17.0;;
79147;SDS011;68562;51.600;6.524;2023-05-10T04:50:00;35.0;;;17.1;;
79147;SDS011;68562;51.600;6.524;2023-05-10T04:55:00;33.6;;;19.1;;
79147;SDS011;68562;51.600;6.524;2023-05-10T05:00:00;31.5;;;17.6;;
79147;SDS011;68562;51.600;6.524;2023-05-10T05:05:00;32.1;;;19.2;;
79147;SDS011;68562;51.600;6.524;2023-05-10T05:10:00;33.6;;;18.6;;
79147;SDS011;68562;51.600;6.524;2023-05-10T05:15:00;34.4;;;17.6;;
79147;SDS011;68562;51.600;6.524;2023-05-10T05:20:00;32.9;;;18.7;;
79147;SDS011;68562;51.600;6.524;2023-05-10T05:25:00;35.0;;;18.8;;
79147;SDS011;68562;51.600;6.524;2023-05-10T05:30:00;31.8;;;19.0;;
79147;SDS011;68562;51.600;6.524;2023-05-10T05:35:00;34.7;;;19.5;;
79147;SDS011;68562;51.600;6.524;2023-05-10T05:40:00;35.4;;;18.1;;
79147;SDS011;68562;51.600;6.524;2023-05-10T05:45:00;35.6;;;19.1;;
79147;SDS011;68562;51.600;6.524;2023-05-10T05:50:00;35.2;;;18.1;;
79147;SDS011;68562;51.600;6.524;2023-05-10T05:55:00;33.1;;;18.6;;
79147;SDS011;68562;51.600;6.524;2023-05-10T06:00:00;33.6;;;18.5;;
79147;SDS011;68562;51.600;6.524;2023-05-10T06:05:00;38.1;;;18.2;;
79147;SDS011;68562;51.600;6.524;2023-05-10T06:10:00;32.6;;;19.9;;
79147;SDS011;68562;51.600;6.524;2023-05-10T06:15:00;38.7;;;20.0;;
79147;SDS011;68562;51.600;6.524;2023-05-10T06:20:00;37.0;;;17.7;;
79147;SDS011;68562;51.600;6.524;2023-05-10T06:25:00;35.3;;;19.8;;
79147;SDS011;68562;51.600;6.524;2023-05-10T06:30:00;34.4;;;19.5;;
79147;SDS011;68562;51.600;6.524;2023-05-10T06:35:00;38.4;;;19.1;;
79147;SDS011;68562;51.600;6.524;2023-05-10T06:40:00;40.0;;;19.7;;
79147;SDS011;68562;51.600;6.524;2023-05-10T06:45:00;32.8;;;19.7;;
79147;SDS011;68562;51.600;6.524;2023-05-10T06:50:00;39.4;;;21.2;;
79147;SDS011;68562;51.600;6.524;2023-05-10T06:55:00;38.2;;;21.6;;
79147;SDS011;68562;51.600;6.524;2023-05-10T07:00:00;35.7;;;19.8;;
79147;SDS011;68562;51.600;6.524;2023-05-10T07:05:00;32.7;;;19.4;;
79147;SDS011;68562;51.600;6.524;2023-05-10T07:10:00;32.6;;;19.0;;
79147;SDS011;68562;51.600;6.524;2023-05-10T07:15:00;32.1;;;18.7;;
79147;SDS011;68562;51.600;6.524;2023-05-10T07:20:00;28.9;;;16.6;;
79147;SDS011;68562;51.600;6.524;2023-05-10T07:25:00;30.9;;;16.5;;
79147;SDS011;68562;51.600;6.524;2023-05-10T07:30:00;34.9;;;19.0;;
79147;SDS011;68562;51.600;6.524;2023-05-10T07:35:00;30.3;;;16.1;;
79147;SDS011;68562;51.600;6.524;2023-05-10T07:40:00;35.3;;;17.7;;
79147;SDS011;68562;51.600;6.524;2023-05-10T07:45:00;32.0;;;18.3;;
79147;SDS011;68562;51.600;6.524;2023-05-10T07:50:00;36.3;;;20.8;;
79147;SDS011;68562;51.600;6.524;2023-05-10T07:55:00;30.4;;;15.8;;
79147;SDS011;68562;51.600;6.524;2023-05-10T08:00:00;31.3;;;19.6;;
79147;SDS011;68562;51.600;6.524;2023-05-10T08:05:00;27.9;;;16.2;;
79147;SDS011;68562;51.600;6.524;2023-05-10T08:10:00;30.0;;;17.0;;
79147;SDS011;68562;51.600;6.524;2023-05-10T08:15:00;33.7;;;18.1;;
79147;SDS011;68562;51.600;6.524;2023-05-10T08:20:00;32.1;;;18.1;;
79147;SDS011;68562;51.600;6.524;2023-05-10T08:25:00;27.0;;;16.6;;
79147;SDS011;68562;51.600;6.524;2023-05-10T08:30:00;31.9;;;17.0;;
79147;SDS011;68562;51.600;6.524;2023-05-10T08:35:00;32.5;;;16.8;;
79147;SDS011;68562;51.600;6.524;2023-05-10T08:40:00;31.0;;;18.7;;
79147;SDS011;68562;51.600;6.524;2023-05-10T08:45:00;29.5;;;15.5;;
79147;SDS011;68562;51.600;6.524;2023-05-10T08:50:00;25.3;;;15.5;;
79147;SDS011;68562;51.600;6.524;2023-05-10T08:55:00;28.8;;;18.2;;
79147;SDS011;68562;51.600;6.524;2023-05-10T09:00:00;28.3;;;18.4;;
79147;SDS011;68562;51.600;6.524;2023-05-10T09:05:00;31.0;;;16.2;;
79147;SDS011;68562;51.600;6.524;2023-05-10T09:10:00;30.1;;;20.6;;
79147;SDS011;68562;51.600;6.524;2023-05-10T09:15:00;26.3;;;17.0;;
79147;SDS011;68562;51.600;6.524;2023-05-10T09:20:00;23.4;;;14.5;;
79147;SDS011;68562;51.600;6.524;2023-05-10T09:25:05;21.4;;;12.8;;
79147;SDS011;68562;51.600;6.524;2023-05-10T09:30:00;21.2;;;13.3;;
79147;SDS011;68562;51.600;6.524;2023-05-10T09:35:05;21.8;;;13.0;;
79147;SDS011;68562;51.600;6.524;2023-05-10T09:40:00;19.4;;;12.4;;
79147;SDS011;68562;51.600;6.524;2023-05-10T09:45:01;20.0;;;12.3;;
79147;SDS011;68562;51.600;6.524;2023-05-10T09:50:00;22.1;;;12.7;;
79147;SDS011;68562;51.600;6.524;2023-05-10T09:55:00;22.4;;;13.3;;
79147;SDS011;68562;51.600;6.524;2023-05-10T10:00:00;20.9;;;12.1;;
79147;SDS011;68562;51.600;6.524;2023-05-10T10:05:00;29.6;;;12.8;;
79147;SDS011;68562;51.600;6.524;2023-05-10T10:10:00;25.9;;;12.9;;
79147;SDS011;68562;51.600;6.524;2023-05-10T10:15:00;26.2;;;14.9;;
79147;SDS011;68562;51.600;6.524;2023-05-10T10:20:00;25.7;;;14.5;;
79147;SDS011;68562;51.600;6.524;2023-05-10T10:25:00;24.8;;;14.7;;
79147;SDS011;68562;51.600;6.524;2023-05-10T10:30:02;26.2;;;15.6;;
79147;SDS011;68562;51.600;6.524;2023-05-10T10:35:00;21.1;;;13.9;;
79147;SDS011;68562;51.600;6.524;2023-05-10T10:40:00;24.0;;;15.1;;
79147;SDS011;68562;51.600;6.524;2023-05-10T10:50:04;22.5;;;13.2;;
79147;SDS011;68562;51.600;6.524;2023-05-10T10:55:01;26.2;;;15.3;;
79147;SDS011;68562;51.600;6.524;2023-05-10T11:05:00;24.6;;;16.5;;
79147;SDS011;68562;51.600;6.524;2023-05-10T11:10:03;22.3;;;14.3;;
79147;SDS011;68562;51.600;6.524;2023-05-10T11:15:00;22.7;;;13.4;;
79147;SDS011;68562;51.600;6.524;2023-05-10T11:20:07;22.2;;;13.3;;
79147;SDS011;68562;51.600;6.524;2023-05-10T11:25:00;23.3;;;15.1;;
79147;SDS011;68562;51.600;6.524;2023-05-10T11:30:00;19.9;;;12.8;;
79147;SDS011;68562;51.600;6.524;2023-05-10T11:35:05;15.8;;;12.4;;
79147;SDS011;68562;51.600;6.524;2023-05-10T11:40:00;15.5;;;11.4;;
79147;SDS011;68562;51.600;6.524;2023-05-10T11:45:00;14.9;;;11.0;;
79147;SDS011;68562;51.600;6.524;2023-05-10T11:50:00;16.3;;;12.4;;
79147;SDS011;68562;51.600;6.524;2023-05-10T11:55:00;15.0;;;11.2;;
79147;SDS011;68562;51.600;6.524;2023-05-10T12:00:00;14.2;;;9.1;;
79147;SDS011;68562;51.600;6.524;2023-05-10T12:05:00;14.2;;;9.7;;
79147;SDS011;68562;51.600;6.524;2023-05-10T12:10:04;12.6;;;9.0;;
79147;SDS011;68562;51.600;6.524;2023-05-10T12:15:00;11.2;;;8.7;;
79147;SDS011;68562;51.600;6.524;2023-05-10T12:25:00;12.8;;;7.5;;
79147;SDS011;68562;51.600;6.524;2023-05-10T12:30:00;11.9;;;7.7;;
79147;SDS011;68562;51.600;6.524;2023-05-10T12:35:00;10.5;;;7.7;;
79147;SDS011;68562;51.600;6.524;2023-05-10T12:40:00;12.3;;;7.7;;
79147;SDS011;68562;51.600;6.524;2023-05-10T12:45:00;11.7;;;6.5;;
79147;SDS011;68562;51.600;6.524;2023-05-10T12:50:00;7.9;;;5.9;;
79147;SDS011;68562;51.600;6.524;2023-05-10T12:55:00;8.1;;;6.0;;
79147;SDS011;68562;51.600;6.524;2023-05-10T13:00:00;11.9;;;7.0;;
79147;SDS011;68562;51.600;6.524;2023-05-10T13:05:00;9.5;;;6.2;;
79147;SDS011;68562;51.600;6.524;2023-05-10T13:10:00;10.5;;;6.9;;
79147;SDS011;68562;51.600;6.524;2023-05-10T13:15:00;9.0;;;6.1;;
79147;SDS011;68562;51.600;6.524;2023-05-10T13:20:00;7.5;;;5.1;;
79147;SDS011;68562;51.600;6.524;2023-05-10T13:25:00;6.8;;;4.9;;
79147;SDS011;68562;51.600;6.524;2023-05-10T13:30:01;9.8;;;5.6;;
79147;SDS011;68562;51.600;6.524;2023-05-10T13:35:00;8.9;;;5.6;;
79147;SDS011;68562;51.600;6.524;2023-05-10T13:40:00;10.4;;;5.9;;
79147;SDS011;68562;51.600;6.524;2023-05-10T13:45:00;6.9;;;5.2;;
79147;SDS011;68562;51.600;6.524;2023-05-10T13:50:00;7.1;;;5.1;;
79147;SDS011;68562;51.600;6.524;2023-05-10T13:55:00;6.9;;;6.2;;
79147;SDS011;68562;51.600;6.524;2023-05-10T14:00:00;8.5;;;5.3;;
79147;SDS011;68562;51.600;6.524;2023-05-10T14:05:00;7.5;;;5.9;;
79147;SDS011;68562;51.600;6.524;2023-05-10T14:10:00;9.4;;;6.6;;
79147;SDS011;68562;51.600;6.524;2023-05-10T14:15:00;9.5;;;6.1;;
79147;SDS011;68562;51.600;6.524;2023-05-10T14:20:00;8.3;;;6.3;;
79147;SDS011;68562;51.600;6.524;2023-05-10T14:25:00;9.7;;;6.5;;
79147;SDS011;68562;51.600;6.524;2023-05-10T14:30:00;12.9;;;7.9;;
79147;SDS011;68562;51.600;6.524;2023-05-10T14:35:00;6.6;;;3.4;;
79147;SDS011;68562;51.600;6.524;2023-05-10T14:40:00;3.4;;;2.4;;
79147;SDS011;68562;51.600;6.524;2023-05-10T14:45:00;3.2;;;2.1;;
79147;SDS011;68562;51.600;6.524;2023-05-10T14:50:00;4.0;;;1.3;;
79147;SDS011;68562;51.600;6.524;2023-05-10T14:55:00;4.0;;;2.0;;
79147;SDS011;68562;51.600;6.524;2023-05-10T15:00:00;3.0;;;2.5;;
79147;SDS011;68562;51.600;6.524;2023-05-10T15:05:00;4.1;;;2.4;;
79147;SDS011;68562;51.600;6.524;2023-05-10T15:10:00;2.6;;;1.9;;
79147;SDS011;68562;51.600;6.524;2023-05-10T15:15:00;4.1;;;2.1;;
79147;SDS011;68562;51.600;6.524;2023-05-10T15:20:00;3.9;;;2.4;;
79147;SDS011;68562;51.600;6.524;2023-05-10T15:25:00;3.1;;;2.5;;
79147;SDS011;68562;51.600;6.524;2023-05-10T15:30:00;5.7;;;3.7;;
79147;SDS011;68562;51.600;6.524;2023-05-10T15:35:00;8.1;;;4.9;;
79147;SDS011;68562;51.600;6.524;2023-05-10T15:40:00;7.6;;;6.1;;
79147;SDS011;68562;51.600;6.524;2023-05-10T15:45:00;8.4;;;6.4;;
79147;SDS011;68562;51.600;6.524;2023-05-10T15:50:00;10.1;;;7.4;;
79147;SDS011;68562;51.600;6.524;2023-05-10T15:55:00;12.3;;;7.7;;
79147;SDS011;68562;51.600;6.524;2023-05-10T16:00:00;11.3;;;7.6;;
79147;SDS011;68562;51.600;6.524;2023-05-10T16:05:00;16.8;;;9.3;;
79147;SDS011;68562;51.600;6.524;2023-05-10T16:10:00;7.0;;;5.4;;
79147;SDS011;68562;51.600;6.524;2023-05-10T16:15:00;8.7;;;5.5;;
79147;SDS011;68562;51.600;6.524;2023-05-10T16:20:00;8.7;;;6.3;;
79147;SDS011;68562;51.600;6.524;2023-05-10T16:25:00;10.1;;;6.0;;
79147;SDS011;68562;51.600;6.524;2023-05-10T16:30:00;8.1;;;5.6;;
79147;SDS011;68562;51.600;6.524;2023-05-10T16:35:00;9.1;;;5.4;;
79147;SDS011;68562;51.600;6.524;2023-05-10T16:40:00;8.5;;;5.7;;
79147;SDS011;68562;51.600;6.524;2023-05-10T16:45:00;8.8;;;5.8;;
79147;SDS011;68562;51.600;6.524;2023-05-10T16:50:00;7.1;;;5.9;;
79147;SDS011;68562;51.600;6.524;2023-05-10T16:55:00;7.7;;;5.9;;
79147;SDS011;68562;51.600;6.524;2023-05-10T17:00:00;8.0;;;6.3;;
79147;SDS011;68562;51.600;6.524;2023-05-10T17:05:00;7.8;;;6.0;;
79147;SDS011;68562;51.600;6.524;2023-05-10T17:10:00;8.2;;;6.3;;
79147;SDS011;68562;51.600;6.524;2023-05-10T17:15:00;7.8;;;5.9;;
79147;SDS011;68562;51.600;6.524;2023-05-10T17:20:00;11.3;;;7.7;;
79147;SDS011;68562;51.600;6.524;2023-05-10T17:25:00;9.0;;;7.1;;
79147;SDS011;68562;51.600;6.524;2023-05-10T17:30:00;11.9;;;7.3;;
79147;SDS011;68562;51.600;6.524;2023-05-10T17:35:01;12.1;;;7.0;;
79147;SDS011;68562;51.600;6.524;2023-05-10T17:40:00;9.5;;;7.1;;
79147;SDS011;68562;51.600;6.524;2023-05-10T17:45:00;8.2;;;6.1;;
79147;SDS011;68562;51.600;6.524;2023-05-10T17:50:00;7.5;;;5.5;;
79147;SDS011;68562;51.600;6.524;2023-05-10T17:55:00;8.1;;;5.8;;
79147;SDS011;68562;51.600;6.524;2023-05-10T18:00:00;9.0;;;6.3;;
79147;SDS011;68562;51.600;6.524;2023-05-10T18:05:00;7.8;;;5.5;;
79147;SDS011;68562;51.600;6.524;2023-05-10T18:10:00;7.4;;;5.9;;
79147;SDS011;68562;51.600;6.524;2023-05-10T18:15:00;8.0;;;6.1;;
79147;SDS011;68562;51.600;6.524;2023-05-10T18:20:00;8.7;;;6.7;;
79147;SDS011;68562;51.600;6.524;2023-05-10T18:25:00;7.7;;;6.1;;
79147;SDS011;68562;51.600;6.524;2023-05-10T18:30:00;9.0;;;6.9;;
79147;SDS011;68562;51.600;6.524;2023-05-10T18:35:00;11.3;;;7.6;;
79147;SDS011;68562;51.600;6.524;2023-05-10T18:40:00;11.5;;;7.6;;
79147;SDS011;68562;51.600;6.524;2023-05-10T18:45:00;11.4;;;7.4;;
79147;SDS011;68562;51.600;6.524;2023-05-10T18:50:01;10.4;;;7.9;;
79147;SDS011;68562;51.600;6.524;2023-05-10T18:55:00;9.9;;;7.7;;
79147;SDS011;68562;51.600;6.524;2023-05-10T19:00:00;9.9;;;7.5;;
79147;SDS011;68562;51.600;6.524;2023-05-10T19:05:00;10.7;;;7.9;;
79147;SDS011;68562;51.600;6.524;2023-05-10T19:10:00;11.6;;;8.7;;
79147;SDS011;68562;51.600;6.524;2023-05-10T19:15:00;12.4;;;8.8;;
79147;SDS011;68562;51.600;6.524;2023-05-10T19:20:00;10.8;;;8.0;;
79147;SDS011;68562;51.600;6.524;2023-05-10T19:25:00;15.4;;;9.2;;
79147;SDS011;68562;51.600;6.524;2023-05-10T19:30:00;11.0;;;7.9;;
79147;SDS011;68562;51.600;6.524;2023-05-10T19:35:00;14.0;;;8.8;;
79147;SDS011;68562;51.600;6.524;2023-05-10T19:40:00;13.3;;;8.8;;
79147;SDS011;68562;51.600;6.524;2023-05-10T19:45:00;16.8;;;9.4;;
79147;SDS011;68562;51.600;6.524;2023-05-10T19:50:00;13.5;;;9.5;;
79147;SDS011;68562;51.600;6.524;2023-05-10T19:55:00;13.4;;;9.6;;
79147;SDS011;68562;51.600;6.524;2023-05-10T20:00:00;13.0;;;9.6;;
79147;SDS011;68562;51.600;6.524;2023-05-10T20:05:00;13.3;;;10.2;;
79147;SDS011;68562;51.600;6.524;2023-05-10T20:10:00;15.2;;;10.7;;
79147;SDS011;68562;51.600;6.524;2023-05-10T20:15:00;14.6;;;10.5;;
79147;SDS011;68562;51.600;6.524;2023-05-10T20:20:00;16.1;;;12.0;;
79147;SDS011;68562;51.600;6.524;2023-05-10T20:25:00;17.4;;;12.5;;
79147;SDS011;68562;51.600;6.524;2023-05-10T20:30:00;17.8;;;12.5;;
79147;SDS011;68562;51.600;6.524;2023-05-10T20:35:00;18.7;;;12.8;;
79147;SDS011;68562;51.600;6.524;2023-05-10T20:40:00;18.6;;;12.1;;
79147;SDS011;68562;51.600;6.524;2023-05-10T20:45:00;18.1;;;12.8;;
79147;SDS011;68562;51.600;6.524;2023-05-10T20:50:00;14.9;;;11.3;;
79147;SDS011;68562;51.600;6.524;2023-05-10T20:55:00;17.7;;;11.6;;
79147;SDS011;68562;51.600;6.524;2023-05-10T21:00:00;17.3;;;11.8;;
79147;SDS011;68562;51.600;6.524;2023-05-10T21:05:00;17.9;;;12.7;;
79147;SDS011;68562;51.600;6.524;2023-05-10T21:10:00;18.2;;;12.0;;
79147;SDS011;68562;51.600;6.524;2023-05-10T21:15:00;17.1;;;12.1;;
79147;SDS011;68562;51.600;6.524;2023-05-10T21:20:00;20.9;;;12.9;;
79147;SDS011;68562;51.600;6.524;2023-05-10T21:25:00;18.8;;;13.8;;
79147;SDS011;68562;51.600;6.524;2023-05-10T21:30:00;19.9;;;13.1;;
79147;SDS011;68562;51.600;6.524;2023-05-10T21:35:00;19.4;;;13.3;;
79147;SDS011;68562;51.600;6.524;2023-05-10T21:40:00;20.8;;;14.0;;
79147;SDS011;68562;51.600;6.524;2023-05-10T21:45:00;19.7;;;13.7;;
79147;SDS011;68562;51.600;6.524;2023-05-10T21:50:00;21.7;;;14.3;;
79147;SDS011;68562;51.600;6.524;2023-05-10T21:55:00;26.1;;;14.2;;
79147;SDS011;68562;51.600;6.524;2023-05-10T22:00:00;22.1;;;14.2;;
79147;SDS011;68562;51.600;6.524;2023-05-10T22:05:00;21.6;;;14.8;;
79147;SDS011;68562;51.600;6.524;2023-05-10T22:10:00;23.4;;;15.8;;
79147;SDS011;68562;51.600;6.524;2023-05-10T22:15:00;22.7;;;15.5;;
79147;SDS011;68562;51.600;6.524;2023-05-10T22:20:01;21.2;;;14.3;;
79147;SDS011;68562;51.600;6.524;2023-05-10T22:25:00;24.9;;;15.2;;
79147;SDS011;68562;51.600;6.524;2023-05-10T22:30:00;22.3;;;15.8;;
79147;SDS011;68562;51.600;6.524;2023-05-10T22:35:00;24.5;;;14.4;;
79147;SDS011;68562;51.600;6.524;2023-05-10T22:40:00;21.7;;;15.1;;
79147;SDS011;68562;51.600;6.524;2023-05-10T22:45:00;19.8;;;14.2;;
79147;SDS011;68562;51.600;6.524;2023-05-10T22:50:00;19.3;;;13.1;;
79147;SDS011;68562;51.600;6.524;2023-05-10T22:55:00;18.1;;;12.6;;
79147;SDS011;68562;51.600;6.524;2023-05-10T23:00:00;20.1;;;13.1;;
79147;SDS011;68562;51.600;6.524;2023-05-10T23:05:00;18.0;;;12.7;;
79147;SDS011;68562;51.600;6.524;2023-05-10T23:10:00;15.7;;;11.4;;
79147;SDS011;68562;51.600;6.524;2023-05-10T23:15:00;17.9;;;11.1;;
79147;SDS011;68562;51.600;6.524;2023-05-10T23:20:00;16.4;;;11.6;;
79147;SDS011;68562;51.600;6.524;2023-05-10T23:25:00;18.8;;;12.2;;
79147;SDS011;68562;51.600;6.524;2023-05-10T23:30:00;18.6;;;12.1;;
79147;SDS011;68562;51.600;6.524;2023-05-10T23:35:00;14.8;;;10.6;;
79147;SDS011;68562;51.600;6.524;2023-05-10T23:40:00;17.2;;;11.0;;
79147;SDS011;68562;51.600;6.524;2023-05-10T23:45:00;15.8;;;11.8;;
79147;SDS011;68562;51.600;6.524;2023-05-10T23:50:00;17.1;;;12.6;;
79147;SDS011;68562;51.600;6.524;2023-05-10T23:55:00;17.9;;;12.2;;
